createdAt,value
2022-08-07T00:00:03.574Z,10
2022-08-07T00:10:19.121Z,10
2022-08-07T00:15:00.200Z,10
2022-08-07T00:20:03.370Z,10
2022-08-07T00:24:59.918Z,9
2022-08-07T00:30:00.088Z,9
2022-08-07T00:35:00.025Z,9
2022-08-07T00:40:00.160Z,9
2022-08-07T00:45:00.269Z,9
2022-08-07T00:50:19.278Z,9
2022-08-07T00:55:04.784Z,9
2022-08-07T01:00:00.309Z,9
2022-08-07T01:05:00.134Z,9
2022-08-07T01:10:06.016Z,9
2022-08-07T01:15:01.058Z,9
2022-08-07T01:20:00.135Z,10
2022-08-07T01:25:00.264Z,10
2022-08-07T01:30:00.884Z,9
2022-08-07T01:35:00.036Z,10
2022-08-07T01:40:00.345Z,10
2022-08-07T01:45:00.065Z,10
2022-08-07T01:50:00.427Z,10
2022-08-07T01:55:00.079Z,10
2022-08-07T02:00:01.541Z,11
2022-08-07T02:04:59.869Z,11
2022-08-07T02:10:00.043Z,11
2022-08-07T02:15:00.882Z,11
2022-08-07T02:20:05.206Z,11
2022-08-07T02:25:00.020Z,11
2022-08-07T02:30:00.034Z,11
2022-08-07T02:35:00.695Z,11
2022-08-07T02:40:02.044Z,11
2022-08-07T02:45:00.134Z,12
2022-08-07T02:50:00.403Z,12
2022-08-07T02:54:59.852Z,12
2022-08-07T03:00:01.329Z,12
2022-08-07T03:05:00.025Z,12
2022-08-07T03:10:00.360Z,12
2022-08-07T03:15:02.444Z,12
2022-08-07T03:19:59.826Z,12
2022-08-07T03:25:00.252Z,12
2022-08-07T03:30:00.718Z,13
2022-08-07T03:35:00.994Z,13
2022-08-07T03:40:15.556Z,13
2022-08-07T03:44:59.773Z,13
2022-08-07T03:49:59.931Z,13
2022-08-07T03:55:07.018Z,13
2022-08-07T04:00:02.742Z,13
2022-08-07T04:04:59.989Z,13
2022-08-07T04:09:59.932Z,13
2022-08-07T04:15:00.267Z,13
2022-08-07T04:20:00.043Z,13
2022-08-07T04:25:01.390Z,13
2022-08-07T04:30:02.793Z,13
2022-08-07T04:34:59.877Z,13
2022-08-07T04:40:00.180Z,13
2022-08-07T04:45:02.578Z,13
2022-08-07T04:50:04.083Z,13
2022-08-07T04:54:59.798Z,13
2022-08-07T05:00:11.220Z,13
2022-08-07T05:05:00.000Z,13
2022-08-07T05:10:02.785Z,13
2022-08-07T05:15:04.504Z,13
2022-08-07T05:19:59.871Z,13
2022-08-07T05:25:00.379Z,13
2022-08-07T05:29:59.972Z,13
2022-08-07T05:34:59.978Z,12
2022-08-07T05:40:05.731Z,12
2022-08-07T05:45:14.854Z,12
2022-08-07T05:50:00.931Z,12
2022-08-07T05:55:06.820Z,12
2022-08-07T06:00:00.030Z,12
2022-08-07T06:05:03.357Z,12
2022-08-07T06:10:05.409Z,12
2022-08-07T06:15:05.822Z,12
2022-08-07T06:20:03.962Z,12
2022-08-07T06:25:01.411Z,11
2022-08-07T06:29:59.665Z,11
2022-08-07T06:34:59.811Z,11
2022-08-07T06:40:17.714Z,11
2022-08-07T06:44:59.964Z,11
2022-08-07T06:49:59.969Z,10
2022-08-07T06:55:33.325Z,10
2022-08-07T07:00:13.716Z,10
2022-08-07T07:05:00.005Z,10
2022-08-07T07:09:59.940Z,10
2022-08-07T07:15:03.253Z,10
2022-08-07T07:19:59.798Z,10
2022-08-07T07:25:14.081Z,10
2022-08-07T07:30:10.136Z,10
2022-08-07T07:34:59.796Z,10
2022-08-07T07:39:59.818Z,9
2022-08-07T07:44:59.851Z,9
2022-08-07T07:50:33.101Z,9
2022-08-07T07:54:59.879Z,9
2022-08-07T07:59:59.633Z,9
2022-08-07T08:04:59.762Z,9
2022-08-07T08:10:05.399Z,9
2022-08-07T08:14:59.855Z,9
2022-08-07T08:20:17.081Z,9
2022-08-07T08:25:18.191Z,8
2022-08-07T08:30:02.829Z,8
2022-08-07T08:34:59.604Z,8
2022-08-07T08:40:00.526Z,8
2022-08-07T08:44:59.858Z,8
2022-08-07T08:50:04.687Z,8
2022-08-07T08:54:59.533Z,8
2022-08-07T09:00:01.421Z,8
2022-08-07T09:04:59.898Z,8
2022-08-07T09:09:59.554Z,8
2022-08-07T09:16:22.696Z,8
2022-08-07T09:20:34.668Z,8
2022-08-07T09:25:07.074Z,8
2022-08-07T09:30:08.336Z,8
2022-08-07T09:34:59.527Z,8
2022-08-07T09:39:59.668Z,8
2022-08-07T09:47:25.317Z,8
2022-08-07T09:50:18.227Z,8
2022-08-07T09:55:03.460Z,8
2022-08-07T10:00:01.389Z,8
2022-08-07T10:04:59.773Z,8
2022-08-07T10:10:02.546Z,9
2022-08-07T10:15:15.090Z,8
2022-08-07T10:19:59.509Z,9
2022-08-07T10:24:59.757Z,9
2022-08-07T10:29:59.616Z,9
2022-08-07T10:35:09.148Z,9
2022-08-07T10:40:06.145Z,9
2022-08-07T10:44:59.640Z,9
2022-08-07T10:49:59.759Z,9
2022-08-07T10:55:20.952Z,9
2022-08-07T10:59:59.499Z,9
2022-08-07T11:05:10.233Z,9
2022-08-07T11:10:08.996Z,9
2022-08-07T11:15:00.891Z,9
2022-08-07T11:19:59.784Z,9
2022-08-07T11:24:59.606Z,9
2022-08-07T11:30:18.736Z,9
2022-08-07T11:34:59.627Z,9
2022-08-07T11:40:09.640Z,9
2022-08-07T11:45:09.530Z,9
2022-08-07T11:50:31.190Z,9
2022-08-07T11:54:59.547Z,9
2022-08-07T12:00:11.064Z,9
2022-08-07T12:05:08.901Z,9
2022-08-07T12:09:59.482Z,9
2022-08-07T12:15:01.244Z,8
2022-08-07T12:20:04.750Z,8
2022-08-07T12:25:02.105Z,8
2022-08-07T12:30:01.766Z,8
2022-08-07T12:34:59.641Z,8
2022-08-07T12:40:00.581Z,8
2022-08-07T12:44:59.582Z,8
2022-08-07T12:50:05.226Z,7
2022-08-07T12:55:03.710Z,7
2022-08-07T13:00:01.124Z,7
2022-08-07T13:05:02.505Z,7
2022-08-07T13:10:22.067Z,7
2022-08-07T13:14:59.702Z,8
2022-08-07T13:19:59.802Z,8
2022-08-07T13:25:02.370Z,8
2022-08-07T13:29:59.420Z,8
2022-08-07T13:35:08.429Z,9
2022-08-07T13:40:36.339Z,9
2022-08-07T13:46:07.200Z,9
2022-08-07T13:50:35.063Z,9
2022-08-07T13:54:59.525Z,9
2022-08-07T13:59:59.601Z,10
2022-08-07T14:04:59.505Z,10
2022-08-07T14:10:15.558Z,10
2022-08-07T14:14:59.367Z,10
2022-08-07T14:20:42.841Z,10
2022-08-07T14:24:59.469Z,10
2022-08-07T14:30:07.463Z,10
2022-08-07T14:34:59.519Z,10
2022-08-07T14:40:15.557Z,10
2022-08-07T14:45:00.111Z,10
2022-08-07T14:49:59.727Z,10
2022-08-07T14:55:00.728Z,10
2022-08-07T15:00:05.499Z,10
2022-08-07T15:05:01.834Z,10
2022-08-07T15:10:01.993Z,10
2022-08-07T15:14:59.508Z,10
2022-08-07T15:20:31.304Z,10
2022-08-07T15:25:14.123Z,10
2022-08-07T15:30:08.903Z,9
2022-08-07T15:34:59.306Z,10
2022-08-07T15:39:59.331Z,9
2022-08-07T15:44:59.271Z,10
2022-08-07T15:55:02.714Z,10
2022-08-07T16:00:04.359Z,9
2022-08-07T16:04:59.554Z,9
2022-08-07T16:09:59.435Z,9
2022-08-07T16:14:59.528Z,9
2022-08-07T16:20:00.102Z,9
2022-08-07T16:24:59.362Z,9
2022-08-07T16:30:11.388Z,9
2022-08-07T16:35:58.527Z,9
2022-08-07T16:39:59.544Z,9
2022-08-07T16:45:23.275Z,10
2022-08-07T16:50:20.353Z,10
2022-08-07T16:54:59.433Z,10
2022-08-07T16:59:59.521Z,10
2022-08-07T17:04:59.201Z,10
2022-08-07T17:10:06.079Z,10
2022-08-07T17:14:59.483Z,10
2022-08-07T17:20:02.087Z,10
2022-08-07T17:24:59.242Z,10
2022-08-07T17:30:15.641Z,10
2022-08-07T17:35:51.058Z,11
2022-08-07T17:40:07.954Z,11
2022-08-07T17:44:59.425Z,11
2022-08-07T17:49:59.554Z,11
2022-08-07T17:54:59.386Z,11
2022-08-07T17:59:59.196Z,11
2022-08-07T18:04:59.418Z,11
2022-08-07T18:10:07.602Z,11
2022-08-07T18:14:59.274Z,11
2022-08-07T18:21:09.618Z,11
2022-08-07T18:24:59.149Z,11
2022-08-07T18:30:07.390Z,11
2022-08-07T18:35:01.585Z,11
2022-08-07T18:40:38.704Z,12
2022-08-07T18:45:44.772Z,11
2022-08-07T18:50:32.823Z,12
2022-08-07T18:55:08.370Z,12
2022-08-07T19:00:04.183Z,12
2022-08-07T19:05:15.022Z,12
2022-08-07T19:10:00.396Z,12
2022-08-07T19:15:00.680Z,12
2022-08-07T19:20:02.905Z,12
2022-08-07T19:25:05.745Z,12
2022-08-07T19:31:05.414Z,13
2022-08-07T19:35:00.349Z,13
2022-08-07T19:40:01.551Z,13
2022-08-07T19:45:08.382Z,12
2022-08-07T19:50:02.728Z,13
2022-08-07T19:55:00.539Z,13
2022-08-07T20:00:00.320Z,13
2022-08-07T20:05:00.444Z,13
2022-08-07T20:10:37.168Z,13
2022-08-07T20:15:02.339Z,13
2022-08-07T20:20:00.663Z,13
2022-08-07T20:25:00.249Z,13
2022-08-07T20:30:00.535Z,13
2022-08-07T20:35:02.090Z,13
2022-08-07T20:40:02.248Z,13
2022-08-07T20:45:00.106Z,13
2022-08-07T20:50:02.249Z,13
2022-08-07T20:55:00.698Z,13
2022-08-07T21:00:07.836Z,13
2022-08-07T21:05:00.246Z,14
2022-08-07T21:10:00.837Z,13
2022-08-07T21:15:00.860Z,14
2022-08-07T21:20:05.553Z,14
2022-08-07T21:25:04.779Z,14
2022-08-07T21:30:00.270Z,14
2022-08-07T21:35:04.997Z,14
2022-08-07T21:40:00.351Z,14
2022-08-07T21:45:00.257Z,14
2022-08-07T21:50:02.745Z,14
2022-08-07T21:55:04.520Z,14
2022-08-07T22:00:04.486Z,14
2022-08-07T22:05:00.387Z,14
2022-08-07T22:10:00.046Z,14
2022-08-07T22:15:00.517Z,14
2022-08-07T22:20:06.035Z,14
2022-08-07T22:25:00.229Z,14
2022-08-07T22:30:00.275Z,13
2022-08-07T22:35:00.069Z,13
2022-08-07T22:40:00.360Z,13
2022-08-07T22:45:02.227Z,13
2022-08-07T22:50:33.670Z,12
2022-08-07T22:55:00.183Z,12
2022-08-07T23:00:00.259Z,12
2022-08-07T23:06:15.315Z,12
2022-08-07T23:10:03.536Z,12
2022-08-07T23:15:00.074Z,11
2022-08-07T23:20:02.916Z,11
2022-08-07T23:25:07.937Z,11
2022-08-07T23:30:38.523Z,11
2022-08-07T23:35:01.116Z,11
2022-08-07T23:40:00.385Z,10
2022-08-07T23:45:06.286Z,10
2022-08-07T23:50:00.025Z,10
2022-08-07T23:55:00.109Z,10
